createdAt,value
2022-12-22T00:02:35.125Z,100.0
2022-12-22T00:07:34.918Z,100.0
2022-12-22T00:12:34.923Z,100.0
2022-12-22T00:17:34.924Z,100.0
2022-12-22T00:22:34.957Z,100.0
2022-12-22T00:27:34.937Z,100.0
2022-12-22T00:32:34.931Z,100.0
2022-12-22T00:37:34.941Z,100.0
2022-12-22T00:42:34.970Z,100.0
2022-12-22T00:47:34.961Z,100.0
2022-12-22T00:52:34.972Z,100.0
2022-12-22T00:57:34.945Z,100.0
2022-12-22T01:02:35.194Z,100.0
2022-12-22T01:07:34.940Z,100.0
2022-12-22T01:12:34.944Z,100.0
2022-12-22T01:17:34.970Z,100.0
2022-12-22T01:22:34.951Z,100.0
2022-12-22T01:27:34.954Z,100.0
2022-12-22T01:32:34.951Z,100.0
2022-12-22T01:37:34.960Z,100.0
2022-12-22T01:42:34.976Z,100.0
2022-12-22T01:47:34.953Z,100.0
2022-12-22T01:52:34.964Z,100.0
2022-12-22T01:57:34.961Z,100.0
2022-12-22T02:02:35.059Z,100.0
2022-12-22T02:07:34.962Z,100.0
2022-12-22T02:12:34.959Z,100.0
2022-12-22T02:17:34.964Z,100.0
2022-12-22T02:22:34.969Z,100.0
2022-12-22T02:27:34.985Z,100.0
2022-12-22T02:32:35.009Z,100.0
2022-12-22T02:37:34.970Z,100.0
2022-12-22T02:42:35.031Z,100.0
2022-12-22T02:47:34.981Z,100.0
2022-12-22T02:52:34.981Z,100.0
2022-12-22T02:57:34.984Z,100.0
2022-12-22T03:02:35.408Z,100.0
2022-12-22T03:07:34.999Z,100.0
2022-12-22T03:12:34.985Z,100.0
2022-12-22T03:17:34.992Z,100.0
2022-12-22T03:22:34.991Z,100.0
2022-12-22T03:27:35.005Z,100.0
2022-12-22T03:32:35.150Z,100.0
2022-12-22T03:37:35.011Z,100.0
2022-12-22T03:42:34.998Z,100.0
2022-12-22T03:47:35.028Z,100.0
2022-12-22T03:52:35.007Z,100.0
2022-12-22T03:57:35.004Z,100.0
2022-12-22T04:02:35.193Z,100.0
2022-12-22T04:07:35.015Z,100.0
2022-12-22T04:12:35.002Z,100.0
2022-12-22T04:17:35.021Z,100.0
2022-12-22T04:22:35.013Z,100.0
2022-12-22T04:27:35.123Z,100.0
2022-12-22T04:32:35.004Z,100.0
2022-12-22T04:37:35.012Z,100.0
2022-12-22T04:42:35.022Z,100.0
2022-12-22T04:47:35.024Z,100.0
2022-12-22T04:52:35.023Z,100.0
2022-12-22T04:57:41.333Z,100.0
2022-12-22T05:02:35.158Z,100.0
2022-12-22T05:07:35.029Z,100.0
2022-12-22T05:12:35.361Z,100.0
2022-12-22T05:17:35.022Z,100.0
2022-12-22T05:22:35.037Z,100.0
2022-12-22T05:27:35.050Z,100.0
2022-12-22T05:32:35.075Z,100.0
2022-12-22T05:37:35.032Z,100.0
2022-12-22T05:42:35.037Z,100.0
2022-12-22T05:47:35.061Z,100.0
2022-12-22T05:52:35.039Z,100.0
2022-12-22T05:57:35.046Z,100.0
2022-12-22T06:02:35.316Z,100.0
2022-12-22T06:07:35.052Z,100.0
2022-12-22T06:12:35.052Z,100.0
2022-12-22T06:17:45.188Z,100.0
2022-12-22T06:22:35.056Z,100.0
2022-12-22T06:27:35.052Z,100.0
2022-12-22T06:32:35.059Z,100.0
2022-12-22T06:37:35.095Z,100.0
2022-12-22T06:42:35.068Z,100.0
2022-12-22T06:47:35.061Z,100.0
2022-12-22T06:52:35.069Z,100.0
2022-12-22T06:57:35.078Z,100.0
2022-12-22T07:02:35.875Z,100.0
2022-12-22T07:07:35.071Z,100.0
2022-12-22T07:12:35.063Z,100.0
2022-12-22T07:17:35.065Z,100.0
2022-12-22T07:22:35.081Z,100.0
2022-12-22T07:27:35.068Z,100.0
2022-12-22T07:32:35.111Z,100.0
2022-12-22T07:37:35.100Z,100.0
2022-12-22T07:42:35.103Z,100.0
2022-12-22T07:47:35.939Z,100.0
2022-12-22T07:52:35.077Z,100.0
2022-12-22T07:57:35.083Z,100.0
2022-12-22T08:02:39.847Z,100.0
2022-12-22T08:07:35.107Z,100.0
2022-12-22T08:12:35.123Z,100.0
2022-12-22T08:17:35.082Z,100.0
2022-12-22T08:22:35.104Z,100.0
2022-12-22T08:27:35.097Z,100.0
2022-12-22T08:32:35.103Z,100.0
2022-12-22T08:37:35.093Z,100.0
2022-12-22T08:42:35.105Z,100.0
2022-12-22T08:47:35.164Z,100.0
2022-12-22T08:52:35.220Z,100.0
2022-12-22T08:57:35.168Z,100.0
2022-12-22T09:02:35.168Z,100.0
2022-12-22T09:07:35.099Z,100.0
2022-12-22T09:12:35.100Z,100.0
2022-12-22T09:17:35.105Z,100.0
2022-12-22T09:22:35.104Z,100.0
2022-12-22T09:27:35.107Z,100.0
2022-12-22T09:32:35.097Z,100.0
2022-12-22T09:37:35.130Z,100.0
2022-12-22T09:42:35.109Z,100.0
2022-12-22T09:47:35.115Z,100.0
2022-12-22T09:52:35.136Z,100.0
2022-12-22T09:57:35.109Z,100.0
2022-12-22T10:02:35.233Z,100.0
2022-12-22T10:07:35.124Z,100.0
2022-12-22T10:12:35.113Z,100.0
2022-12-22T10:17:35.117Z,100.0
2022-12-22T10:22:35.122Z,100.0
2022-12-22T10:27:45.533Z,100.0
2022-12-22T10:32:35.156Z,100.0
2022-12-22T10:37:35.130Z,100.0
2022-12-22T10:42:35.148Z,100.0
2022-12-22T10:47:35.125Z,100.0
2022-12-22T10:52:35.147Z,100.0
2022-12-22T10:57:35.130Z,100.0
2022-12-22T11:02:35.658Z,100.0
2022-12-22T11:07:35.135Z,100.0
2022-12-22T11:12:35.136Z,100.0
2022-12-22T11:17:35.155Z,100.0
2022-12-22T11:22:35.138Z,99.5
2022-12-22T11:27:37.504Z,100.0
2022-12-22T11:32:35.153Z,99.5
2022-12-22T11:37:35.149Z,98.0
2022-12-22T11:42:35.146Z,98.0
2022-12-22T11:47:35.160Z,98.0
2022-12-22T11:52:35.166Z,98.0
2022-12-22T11:57:35.155Z,98.0
2022-12-22T12:02:35.288Z,98.0
2022-12-22T12:07:35.157Z,97.5
2022-12-22T12:12:35.175Z,97.5
2022-12-22T12:17:35.164Z,96.5
2022-12-22T12:22:35.184Z,96.5
2022-12-22T12:27:35.168Z,96.5
2022-12-22T12:32:35.165Z,96.0
2022-12-22T12:37:35.193Z,95.5
2022-12-22T12:42:35.168Z,95.5
2022-12-22T12:47:35.169Z,96.0
2022-12-22T12:52:35.183Z,96.0
2022-12-22T12:57:35.273Z,96.0
2022-12-22T13:02:35.732Z,96.5
2022-12-22T13:07:35.179Z,96.0
2022-12-22T13:12:35.180Z,96.0
2022-12-22T13:17:35.353Z,96.0
2022-12-22T13:22:35.180Z,96.0
2022-12-22T13:27:35.185Z,96.0
2022-12-22T13:32:35.203Z,96.0
2022-12-22T13:37:35.205Z,95.5
2022-12-22T13:42:35.220Z,95.5
2022-12-22T13:47:35.197Z,95.5
2022-12-22T13:52:35.197Z,95.0
2022-12-22T13:57:35.191Z,95.5
2022-12-22T14:02:35.444Z,96.0
2022-12-22T14:07:35.211Z,96.0
2022-12-22T14:12:35.210Z,96.0
2022-12-22T14:17:35.204Z,96.0
2022-12-22T14:22:35.202Z,96.0
2022-12-22T14:27:35.306Z,96.0
2022-12-22T14:32:35.305Z,96.0
2022-12-22T14:37:35.107Z,96.0
2022-12-22T14:42:35.219Z,96.0
2022-12-22T14:47:35.304Z,96.0
2022-12-22T14:52:35.264Z,96.0
2022-12-22T14:57:35.262Z,96.5
2022-12-22T15:02:40.457Z,96.5
2022-12-22T15:12:35.225Z,96.5
2022-12-22T15:17:35.226Z,96.5
2022-12-22T15:22:35.218Z,96.5
2022-12-22T15:27:35.218Z,96.5
2022-12-22T15:32:38.334Z,97.0
2022-12-22T15:37:35.225Z,97.0
2022-12-22T15:42:35.226Z,97.0
2022-12-22T15:47:35.240Z,97.5
2022-12-22T15:52:35.223Z,97.5
2022-12-22T15:57:35.233Z,98.0
2022-12-22T16:02:35.574Z,98.0
2022-12-22T16:07:35.240Z,98.0
2022-12-22T16:12:35.231Z,98.0
2022-12-22T16:17:35.319Z,98.5
2022-12-22T16:22:35.285Z,98.5
2022-12-22T16:27:35.248Z,99.0
2022-12-22T16:32:35.269Z,99.0
2022-12-22T16:37:35.257Z,99.0
2022-12-22T16:47:35.243Z,99.5
2022-12-22T16:52:35.248Z,99.5
2022-12-22T16:57:35.247Z,100.0
2022-12-22T17:02:35.912Z,100.0
2022-12-22T17:07:35.253Z,100.0
2022-12-22T17:12:35.265Z,100.0
2022-12-22T17:17:40.252Z,100.0
2022-12-22T17:22:35.350Z,100.0
2022-12-22T17:27:35.350Z,100.0
2022-12-22T17:32:35.283Z,100.0
2022-12-22T17:37:35.263Z,100.0
2022-12-22T17:42:35.263Z,100.0
2022-12-22T17:47:43.291Z,100.0
2022-12-22T17:52:35.279Z,100.0
2022-12-22T17:57:35.265Z,100.0
2022-12-22T18:02:35.882Z,100.0
2022-12-22T18:07:44.158Z,100.0
2022-12-22T18:12:35.281Z,100.0
2022-12-22T18:17:36.365Z,100.0
2022-12-22T18:22:35.283Z,100.0
2022-12-22T18:27:35.356Z,100.0
2022-12-22T18:32:35.308Z,100.0
2022-12-22T18:37:35.370Z,100.0
2022-12-22T18:42:35.279Z,100.0
2022-12-22T18:47:35.754Z,100.0
2022-12-22T18:52:35.346Z,100.0
2022-12-22T18:57:35.349Z,100.0
2022-12-22T19:02:35.607Z,100.0
2022-12-22T19:07:35.309Z,100.0
2022-12-22T19:12:35.296Z,100.0
2022-12-22T19:17:35.307Z,100.0
2022-12-22T19:22:35.310Z,100.0
2022-12-22T19:27:35.302Z,100.0
2022-12-22T19:32:35.320Z,100.0
2022-12-22T19:37:35.215Z,100.0
2022-12-22T19:42:35.304Z,100.0
2022-12-22T19:47:35.308Z,100.0
2022-12-22T19:52:35.307Z,100.0
2022-12-22T19:57:35.375Z,100.0
2022-12-22T20:02:35.486Z,100.0
2022-12-22T20:07:35.319Z,100.0
2022-12-22T20:12:35.318Z,100.0
2022-12-22T20:17:35.335Z,100.0
2022-12-22T20:22:35.237Z,100.0
2022-12-22T20:27:35.251Z,100.0
2022-12-22T20:32:35.326Z,100.0
2022-12-22T20:37:35.228Z,100.0
2022-12-22T20:42:35.226Z,100.0
2022-12-22T20:47:35.334Z,100.0
2022-12-22T20:52:35.654Z,100.0
2022-12-22T20:57:35.347Z,100.0
2022-12-22T21:02:35.461Z,100.0
2022-12-22T21:07:35.245Z,100.0
2022-12-22T21:12:35.240Z,100.0
2022-12-22T21:17:35.338Z,100.0
2022-12-22T21:22:35.456Z,100.0
2022-12-22T21:27:35.346Z,100.0
2022-12-22T21:32:35.258Z,100.0
2022-12-22T21:37:35.459Z,100.0
2022-12-22T21:42:35.345Z,100.0
2022-12-22T21:47:35.348Z,100.0
2022-12-22T21:52:35.250Z,100.0
2022-12-22T21:57:35.263Z,100.0
2022-12-22T22:02:35.332Z,100.0
2022-12-22T22:07:35.352Z,100.0
2022-12-22T22:12:35.253Z,100.0
2022-12-22T22:17:35.355Z,100.0
2022-12-22T22:22:35.412Z,100.0
2022-12-22T22:27:35.922Z,100.0
2022-12-22T22:32:35.386Z,100.0
2022-12-22T22:37:35.369Z,100.0
2022-12-22T22:42:35.470Z,100.0
2022-12-22T22:47:35.276Z,100.0
2022-12-22T22:52:35.399Z,100.0
2022-12-22T22:57:35.276Z,100.0
2022-12-22T23:02:35.399Z,100.0
2022-12-22T23:07:35.390Z,100.0
2022-12-22T23:12:35.281Z,100.0
2022-12-22T23:17:35.278Z,100.0
2022-12-22T23:22:35.280Z,100.0
2022-12-22T23:27:35.285Z,100.0
2022-12-22T23:32:35.306Z,100.0
2022-12-22T23:37:35.291Z,100.0
2022-12-22T23:42:36.058Z,100.0
2022-12-22T23:47:35.291Z,100.0
2022-12-22T23:52:35.410Z,100.0
2022-12-22T23:57:35.297Z,100.0
